sensor_id;sensor_type;location;lat;lon;timestamp;temperature;humidity
16732;DHT22;8484;50.904;9.192;2023-03-21T00:02:23;7.70;99.90
16732;DHT22;8484;50.904;9.192;2023-03-21T00:04:50;7.70;99.90
16732;DHT22;8484;50.904;9.192;2023-03-21T00:07:17;7.80;99.90
16732;DHT22;8484;50.904;9.192;2023-03-21T00:09:45;7.70;99.90
16732;DHT22;8484;50.904;9.192;2023-03-21T00:12:12;7.70;99.90
16732;DHT22;8484;50.904;9.192;2023-03-21T00:14:42;7.80;99.90
16732;DHT22;8484;50.904;9.192;2023-03-21T00:17:09;7.70;99.90
16732;DHT22;8484;50.904;9.192;2023-03-21T00:19:36;7.70;99.90
16732;DHT22;8484;50.904;9.192;2023-03-21T00:22:05;7.70;99.90
16732;DHT22;8484;50.904;9.192;2023-03-21T00:24:33;7.70;99.90
16732;DHT22;8484;50.904;9.192;2023-03-21T00:27:01;7.70;99.90
16732;DHT22;8484;50.904;9.192;2023-03-21T00:29:28;7.70;99.90
16732;DHT22;8484;50.904;9.192;2023-03-21T00:31:54;7.70;99.90
16732;DHT22;8484;50.904;9.192;2023-03-21T00:34:21;7.60;99.90
16732;DHT22;8484;50.904;9.192;2023-03-21T00:36:48;7.60;99.90
16732;DHT22;8484;50.904;9.192;2023-03-21T00:39:15;7.70;99.90
16732;DHT22;8484;50.904;9.192;2023-03-21T00:41:42;7.60;99.90
16732;DHT22;8484;50.904;9.192;2023-03-21T00:44:11;7.60;99.90
16732;DHT22;8484;50.904;9.192;2023-03-21T00:46:40;7.70;99.90
16732;DHT22;8484;50.904;9.192;2023-03-21T00:49:07;7.70;99.90
16732;DHT22;8484;50.904;9.192;2023-03-21T00:51:34;7.70;99.90
16732;DHT22;8484;50.904;9.192;2023-03-21T00:54:00;7.70;99.90
16732;DHT22;8484;50.904;9.192;2023-03-21T00:56:30;7.70;99.90
16732;DHT22;8484;50.904;9.192;2023-03-21T00:58:56;7.70;99.90
16732;DHT22;8484;50.904;9.192;2023-03-21T01:01:25;7.70;99.90
16732;DHT22;8484;50.904;9.192;2023-03-21T01:03:56;7.70;99.90
16732;DHT22;8484;50.904;9.192;2023-03-21T01:06:27;7.70;99.90
16732;DHT22;8484;50.904;9.192;2023-03-21T01:08:54;7.60;99.90
16732;DHT22;8484;50.904;9.192;2023-03-21T01:11:23;7.60;99.90
16732;DHT22;8484;50.904;9.192;2023-03-21T01:13:50;7.60;99.90
16732;DHT22;8484;50.904;9.192;2023-03-21T01:16:17;7.60;99.90
16732;DHT22;8484;50.904;9.192;2023-03-21T01:18:45;7.60;99.90
16732;DHT22;8484;50.904;9.192;2023-03-21T01:21:13;7.60;99.90
16732;DHT22;8484;50.904;9.192;2023-03-21T01:23:42;7.60;99.90
16732;DHT22;8484;50.904;9.192;2023-03-21T01:26:10;7.70;99.90
16732;DHT22;8484;50.904;9.192;2023-03-21T01:28:39;7.70;99.90
16732;DHT22;8484;50.904;9.192;2023-03-21T01:31:06;7.80;99.90
16732;DHT22;8484;50.904;9.192;2023-03-21T01:33:34;7.70;99.90
16732;DHT22;8484;50.904;9.192;2023-03-21T01:36:03;7.80;99.90
16732;DHT22;8484;50.904;9.192;2023-03-21T01:38:30;7.80;99.90
16732;DHT22;8484;50.904;9.192;2023-03-21T01:40:59;7.90;99.90
16732;DHT22;8484;50.904;9.192;2023-03-21T01:43:28;7.80;99.90
16732;DHT22;8484;50.904;9.192;2023-03-21T01:46:21;7.80;99.90
16732;DHT22;8484;50.904;9.192;2023-03-21T01:48:53;8.00;99.90
16732;DHT22;8484;50.904;9.192;2023-03-21T01:51:23;7.90;99.90
16732;DHT22;8484;50.904;9.192;2023-03-21T01:53:52;7.90;99.90
16732;DHT22;8484;50.904;9.192;2023-03-21T01:56:24;7.90;99.90
16732;DHT22;8484;50.904;9.192;2023-03-21T01:58:55;7.90;99.90
16732;DHT22;8484;50.904;9.192;2023-03-21T02:01:24;7.90;99.90
16732;DHT22;8484;50.904;9.192;2023-03-21T02:03:51;7.90;99.90
16732;DHT22;8484;50.904;9.192;2023-03-21T02:06:26;7.90;99.90
16732;DHT22;8484;50.904;9.192;2023-03-21T02:08:58;7.90;99.90
16732;DHT22;8484;50.904;9.192;2023-03-21T02:11:26;7.90;99.90
16732;DHT22;8484;50.904;9.192;2023-03-21T02:13:54;7.90;99.90
16732;DHT22;8484;50.904;9.192;2023-03-21T02:16:31;7.90;99.90
16732;DHT22;8484;50.904;9.192;2023-03-21T02:19:17;7.90;99.90
16732;DHT22;8484;50.904;9.192;2023-03-21T02:22:19;7.80;99.90
16732;DHT22;8484;50.904;9.192;2023-03-21T02:25:03;7.80;99.90
16732;DHT22;8484;50.904;9.192;2023-03-21T02:27:37;7.80;99.90
16732;DHT22;8484;50.904;9.192;2023-03-21T02:30:33;7.80;99.90
16732;DHT22;8484;50.904;9.192;2023-03-21T02:33:28;7.80;99.90
16732;DHT22;8484;50.904;9.192;2023-03-21T02:36:23;7.70;99.90
16732;DHT22;8484;50.904;9.192;2023-03-21T02:38:54;7.70;99.90
16732;DHT22;8484;50.904;9.192;2023-03-21T02:41:32;7.80;99.90
16732;DHT22;8484;50.904;9.192;2023-03-21T02:44:06;7.80;99.90
16732;DHT22;8484;50.904;9.192;2023-03-21T02:46:41;7.70;99.90
16732;DHT22;8484;50.904;9.192;2023-03-21T02:49:16;7.70;99.90
16732;DHT22;8484;50.904;9.192;2023-03-21T02:51:47;7.70;99.90
16732;DHT22;8484;50.904;9.192;2023-03-21T02:54:18;7.70;99.90
16732;DHT22;8484;50.904;9.192;2023-03-21T02:56:48;7.70;99.90
16732;DHT22;8484;50.904;9.192;2023-03-21T02:59:17;7.70;99.90
16732;DHT22;8484;50.904;9.192;2023-03-21T03:01:45;7.70;99.90
16732;DHT22;8484;50.904;9.192;2023-03-21T03:04:19;7.70;99.90
16732;DHT22;8484;50.904;9.192;2023-03-21T03:09:53;7.60;99.90
16732;DHT22;8484;50.904;9.192;2023-03-21T03:12:31;7.70;99.90
16732;DHT22;8484;50.904;9.192;2023-03-21T03:15:09;7.70;99.90
16732;DHT22;8484;50.904;9.192;2023-03-21T03:17:48;7.60;99.90
16732;DHT22;8484;50.904;9.192;2023-03-21T03:20:44;7.60;99.90
16732;DHT22;8484;50.904;9.192;2023-03-21T03:23:23;7.60;99.90
16732;DHT22;8484;50.904;9.192;2023-03-21T03:25:54;7.60;99.90
16732;DHT22;8484;50.904;9.192;2023-03-21T03:28:26;7.50;99.90
16732;DHT22;8484;50.904;9.192;2023-03-21T03:30:57;7.60;99.90
16732;DHT22;8484;50.904;9.192;2023-03-21T03:33:26;7.50;99.90
16732;DHT22;8484;50.904;9.192;2023-03-21T03:35:56;7.50;99.90
16732;DHT22;8484;50.904;9.192;2023-03-21T03:38:25;7.60;99.90
16732;DHT22;8484;50.904;9.192;2023-03-21T03:40:55;7.60;99.90
16732;DHT22;8484;50.904;9.192;2023-03-21T03:43:30;7.50;99.90
16732;DHT22;8484;50.904;9.192;2023-03-21T03:46:01;7.50;99.90
16732;DHT22;8484;50.904;9.192;2023-03-21T03:48:33;7.40;99.90
16732;DHT22;8484;50.904;9.192;2023-03-21T03:51:07;7.30;99.90
16732;DHT22;8484;50.904;9.192;2023-03-21T03:53:39;7.20;99.90
16732;DHT22;8484;50.904;9.192;2023-03-21T03:56:08;7.20;99.90
16732;DHT22;8484;50.904;9.192;2023-03-21T03:58:36;7.20;99.90
16732;DHT22;8484;50.904;9.192;2023-03-21T04:01:05;7.30;99.90
16732;DHT22;8484;50.904;9.192;2023-03-21T04:03:33;7.30;99.90
16732;DHT22;8484;50.904;9.192;2023-03-21T04:06:01;7.40;99.90
16732;DHT22;8484;50.904;9.192;2023-03-21T04:08:29;7.40;99.90
16732;DHT22;8484;50.904;9.192;2023-03-21T04:10:56;7.40;99.90
16732;DHT22;8484;50.904;9.192;2023-03-21T04:13:24;7.30;99.90
16732;DHT22;8484;50.904;9.192;2023-03-21T04:15:50;7.20;99.90
16732;DHT22;8484;50.904;9.192;2023-03-21T04:18:17;7.30;99.90
16732;DHT22;8484;50.904;9.192;2023-03-21T04:20:44;7.30;99.90
16732;DHT22;8484;50.904;9.192;2023-03-21T04:23:12;7.40;99.90
16732;DHT22;8484;50.904;9.192;2023-03-21T04:25:40;7.40;99.90
16732;DHT22;8484;50.904;9.192;2023-03-21T04:28:07;7.30;99.90
16732;DHT22;8484;50.904;9.192;2023-03-21T04:30:34;7.30;99.90
16732;DHT22;8484;50.904;9.192;2023-03-21T04:33:01;7.10;99.90
16732;DHT22;8484;50.904;9.192;2023-03-21T04:35:28;6.90;99.90
16732;DHT22;8484;50.904;9.192;2023-03-21T04:37:55;6.80;99.90
16732;DHT22;8484;50.904;9.192;2023-03-21T04:40:22;6.70;99.90
16732;DHT22;8484;50.904;9.192;2023-03-21T04:42:51;6.80;99.90
16732;DHT22;8484;50.904;9.192;2023-03-21T04:45:18;6.80;99.90
16732;DHT22;8484;50.904;9.192;2023-03-21T04:47:45;6.90;99.90
16732;DHT22;8484;50.904;9.192;2023-03-21T04:50:12;6.80;99.90
16732;DHT22;8484;50.904;9.192;2023-03-21T04:52:40;6.70;99.90
16732;DHT22;8484;50.904;9.192;2023-03-21T04:55:07;6.80;99.90
16732;DHT22;8484;50.904;9.192;2023-03-21T04:57:36;6.70;99.90
16732;DHT22;8484;50.904;9.192;2023-03-21T05:00:07;6.60;99.90
16732;DHT22;8484;50.904;9.192;2023-03-21T05:02:36;6.50;99.90
16732;DHT22;8484;50.904;9.192;2023-03-21T05:05:03;6.50;99.90
16732;DHT22;8484;50.904;9.192;2023-03-21T05:07:30;6.50;99.90
16732;DHT22;8484;50.904;9.192;2023-03-21T05:09:57;6.60;99.90
16732;DHT22;8484;50.904;9.192;2023-03-21T05:12:25;6.60;99.90
16732;DHT22;8484;50.904;9.192;2023-03-21T05:14:51;6.60;99.90
16732;DHT22;8484;50.904;9.192;2023-03-21T05:17:20;6.70;99.90
16732;DHT22;8484;50.904;9.192;2023-03-21T05:19:49;6.70;99.90
16732;DHT22;8484;50.904;9.192;2023-03-21T05:22:18;6.80;99.90
16732;DHT22;8484;50.904;9.192;2023-03-21T05:24:45;6.90;99.90
16732;DHT22;8484;50.904;9.192;2023-03-21T05:27:15;7.00;99.90
16732;DHT22;8484;50.904;9.192;2023-03-21T05:30:02;7.00;99.90
16732;DHT22;8484;50.904;9.192;2023-03-21T05:32:30;7.10;99.90
16732;DHT22;8484;50.904;9.192;2023-03-21T05:34:57;7.20;99.90
16732;DHT22;8484;50.904;9.192;2023-03-21T05:37:24;7.10;99.90
16732;DHT22;8484;50.904;9.192;2023-03-21T05:39:51;7.10;99.90
16732;DHT22;8484;50.904;9.192;2023-03-21T05:42:18;7.20;99.90
16732;DHT22;8484;50.904;9.192;2023-03-21T05:44:46;7.20;99.90
16732;DHT22;8484;50.904;9.192;2023-03-21T05:47:14;7.20;99.90
16732;DHT22;8484;50.904;9.192;2023-03-21T05:49:43;7.20;99.90
16732;DHT22;8484;50.904;9.192;2023-03-21T05:52:10;7.10;99.90
16732;DHT22;8484;50.904;9.192;2023-03-21T05:54:37;7.30;99.90
16732;DHT22;8484;50.904;9.192;2023-03-21T05:57:04;7.40;99.90
16732;DHT22;8484;50.904;9.192;2023-03-21T05:59:31;7.40;99.90
16732;DHT22;8484;50.904;9.192;2023-03-21T06:01:58;7.40;99.90
16732;DHT22;8484;50.904;9.192;2023-03-21T06:04:25;7.50;99.90
16732;DHT22;8484;50.904;9.192;2023-03-21T06:06:54;7.50;99.90
16732;DHT22;8484;50.904;9.192;2023-03-21T06:09:21;7.60;99.90
16732;DHT22;8484;50.904;9.192;2023-03-21T06:11:49;7.60;99.90
16732;DHT22;8484;50.904;9.192;2023-03-21T06:14:18;7.70;99.90
16732;DHT22;8484;50.904;9.192;2023-03-21T06:16:45;7.50;99.90
16732;DHT22;8484;50.904;9.192;2023-03-21T06:19:12;7.40;99.90
16732;DHT22;8484;50.904;9.192;2023-03-21T06:21:39;7.50;99.90
16732;DHT22;8484;50.904;9.192;2023-03-21T06:24:08;7.60;99.90
16732;DHT22;8484;50.904;9.192;2023-03-21T06:26:35;7.60;99.90
16732;DHT22;8484;50.904;9.192;2023-03-21T06:29:02;7.80;99.90
16732;DHT22;8484;50.904;9.192;2023-03-21T06:31:29;7.90;99.90
16732;DHT22;8484;50.904;9.192;2023-03-21T06:33:59;7.90;99.90
16732;DHT22;8484;50.904;9.192;2023-03-21T06:36:26;7.90;99.90
16732;DHT22;8484;50.904;9.192;2023-03-21T06:38:53;7.90;99.90
16732;DHT22;8484;50.904;9.192;2023-03-21T06:41:21;8.00;99.90
16732;DHT22;8484;50.904;9.192;2023-03-21T06:43:48;8.00;99.90
16732;DHT22;8484;50.904;9.192;2023-03-21T06:46:15;8.00;99.90
16732;DHT22;8484;50.904;9.192;2023-03-21T06:48:42;8.00;99.90
16732;DHT22;8484;50.904;9.192;2023-03-21T06:51:11;8.10;99.90
16732;DHT22;8484;50.904;9.192;2023-03-21T06:53:38;8.20;99.90
16732;DHT22;8484;50.904;9.192;2023-03-21T06:56:07;8.20;99.90
16732;DHT22;8484;50.904;9.192;2023-03-21T06:58:36;8.30;99.90
16732;DHT22;8484;50.904;9.192;2023-03-21T07:01:04;8.40;99.90
16732;DHT22;8484;50.904;9.192;2023-03-21T07:03:32;8.50;99.90
16732;DHT22;8484;50.904;9.192;2023-03-21T07:06:03;8.60;99.90
16732;DHT22;8484;50.904;9.192;2023-03-21T07:08:30;8.60;99.90
16732;DHT22;8484;50.904;9.192;2023-03-21T07:10:57;8.50;99.90
16732;DHT22;8484;50.904;9.192;2023-03-21T07:13:24;8.60;99.90
16732;DHT22;8484;50.904;9.192;2023-03-21T07:15:52;8.60;99.90
16732;DHT22;8484;50.904;9.192;2023-03-21T07:18:19;8.70;99.90
16732;DHT22;8484;50.904;9.192;2023-03-21T07:20:47;8.70;99.90
16732;DHT22;8484;50.904;9.192;2023-03-21T07:23:16;8.70;99.90
16732;DHT22;8484;50.904;9.192;2023-03-21T07:25:43;8.90;99.90
16732;DHT22;8484;50.904;9.192;2023-03-21T07:28:10;9.10;99.90
16732;DHT22;8484;50.904;9.192;2023-03-21T07:30:37;9.20;99.90
16732;DHT22;8484;50.904;9.192;2023-03-21T07:33:05;9.20;99.90
16732;DHT22;8484;50.904;9.192;2023-03-21T07:35:33;9.00;99.90
16732;DHT22;8484;50.904;9.192;2023-03-21T07:38:00;8.90;99.90
16732;DHT22;8484;50.904;9.192;2023-03-21T07:40:27;8.90;99.90
16732;DHT22;8484;50.904;9.192;2023-03-21T07:42:54;8.90;99.90
16732;DHT22;8484;50.904;9.192;2023-03-21T07:45:21;9.00;99.90
16732;DHT22;8484;50.904;9.192;2023-03-21T07:47:50;9.10;99.90
16732;DHT22;8484;50.904;9.192;2023-03-21T07:50:18;9.10;99.90
16732;DHT22;8484;50.904;9.192;2023-03-21T07:52:45;9.30;99.90
16732;DHT22;8484;50.904;9.192;2023-03-21T07:55:12;9.50;99.90
16732;DHT22;8484;50.904;9.192;2023-03-21T07:57:41;9.60;99.90
16732;DHT22;8484;50.904;9.192;2023-03-21T08:00:10;9.70;99.90
16732;DHT22;8484;50.904;9.192;2023-03-21T08:02:37;9.80;99.90
16732;DHT22;8484;50.904;9.192;2023-03-21T08:05:04;9.90;99.90
16732;DHT22;8484;50.904;9.192;2023-03-21T08:07:32;9.90;99.90
16732;DHT22;8484;50.904;9.192;2023-03-21T08:10:00;9.80;99.90
16732;DHT22;8484;50.904;9.192;2023-03-21T08:12:27;9.70;99.90
16732;DHT22;8484;50.904;9.192;2023-03-21T08:14:53;9.80;99.90
16732;DHT22;8484;50.904;9.192;2023-03-21T08:17:20;10.00;99.90
16732;DHT22;8484;50.904;9.192;2023-03-21T08:19:47;10.20;99.90
16732;DHT22;8484;50.904;9.192;2023-03-21T08:22:14;10.30;99.90
16732;DHT22;8484;50.904;9.192;2023-03-21T08:24:43;10.40;99.90
16732;DHT22;8484;50.904;9.192;2023-03-21T08:27:10;10.50;99.90
16732;DHT22;8484;50.904;9.192;2023-03-21T08:29:37;10.50;99.90
16732;DHT22;8484;50.904;9.192;2023-03-21T08:32:06;10.60;99.90
16732;DHT22;8484;50.904;9.192;2023-03-21T08:34:33;10.80;99.90
16732;DHT22;8484;50.904;9.192;2023-03-21T08:37:01;10.70;99.90
16732;DHT22;8484;50.904;9.192;2023-03-21T08:39:28;10.80;99.90
16732;DHT22;8484;50.904;9.192;2023-03-21T08:41:56;10.80;99.90
16732;DHT22;8484;50.904;9.192;2023-03-21T08:44:23;10.90;99.90
16732;DHT22;8484;50.904;9.192;2023-03-21T08:46:51;10.80;99.90
16732;DHT22;8484;50.904;9.192;2023-03-21T08:49:18;10.90;99.90
16732;DHT22;8484;50.904;9.192;2023-03-21T08:51:45;10.90;99.90
16732;DHT22;8484;50.904;9.192;2023-03-21T08:54:18;10.90;99.90
16732;DHT22;8484;50.904;9.192;2023-03-21T08:56:45;11.00;99.90
16732;DHT22;8484;50.904;9.192;2023-03-21T08:59:13;10.90;99.90
16732;DHT22;8484;50.904;9.192;2023-03-21T09:01:41;10.60;99.90
16732;DHT22;8484;50.904;9.192;2023-03-21T09:04:08;10.70;99.90
16732;DHT22;8484;50.904;9.192;2023-03-21T09:06:35;10.70;99.90
16732;DHT22;8484;50.904;9.192;2023-03-21T09:09:03;10.80;99.90
16732;DHT22;8484;50.904;9.192;2023-03-21T09:11:32;10.80;99.90
16732;DHT22;8484;50.904;9.192;2023-03-21T09:13:59;10.90;99.90
16732;DHT22;8484;50.904;9.192;2023-03-21T09:16:28;11.10;99.90
16732;DHT22;8484;50.904;9.192;2023-03-21T09:18:55;11.30;99.90
16732;DHT22;8484;50.904;9.192;2023-03-21T09:21:25;11.70;99.90
16732;DHT22;8484;50.904;9.192;2023-03-21T09:23:53;12.50;99.90
16732;DHT22;8484;50.904;9.192;2023-03-21T09:26:24;12.40;99.90
16732;DHT22;8484;50.904;9.192;2023-03-21T09:28:52;12.60;99.90
16732;DHT22;8484;50.904;9.192;2023-03-21T09:31:20;12.50;99.90
16732;DHT22;8484;50.904;9.192;2023-03-21T09:33:51;12.10;99.90
16732;DHT22;8484;50.904;9.192;2023-03-21T09:36:18;12.00;99.90
16732;DHT22;8484;50.904;9.192;2023-03-21T09:38:47;11.60;99.90
16732;DHT22;8484;50.904;9.192;2023-03-21T09:41:23;11.60;99.90
16732;DHT22;8484;50.904;9.192;2023-03-21T09:44:04;11.40;99.90
16732;DHT22;8484;50.904;9.192;2023-03-21T09:46:39;11.50;99.90
16732;DHT22;8484;50.904;9.192;2023-03-21T09:49:15;11.60;99.90
16732;DHT22;8484;50.904;9.192;2023-03-21T09:51:47;11.80;99.90
16732;DHT22;8484;50.904;9.192;2023-03-21T09:54:19;11.60;99.90
16732;DHT22;8484;50.904;9.192;2023-03-21T09:56:48;11.70;99.90
16732;DHT22;8484;50.904;9.192;2023-03-21T09:59:21;11.90;99.90
16732;DHT22;8484;50.904;9.192;2023-03-21T10:01:49;11.90;99.90
16732;DHT22;8484;50.904;9.192;2023-03-21T10:04:18;11.70;99.90
16732;DHT22;8484;50.904;9.192;2023-03-21T10:06:52;11.70;99.90
16732;DHT22;8484;50.904;9.192;2023-03-21T10:09:21;11.60;99.90
16732;DHT22;8484;50.904;9.192;2023-03-21T10:11:51;11.30;99.90
16732;DHT22;8484;50.904;9.192;2023-03-21T10:14:24;11.50;99.90
16732;DHT22;8484;50.904;9.192;2023-03-21T10:16:56;11.60;99.90
16732;DHT22;8484;50.904;9.192;2023-03-21T10:19:26;11.30;99.90
16732;DHT22;8484;50.904;9.192;2023-03-21T10:22:00;11.50;99.90
16732;DHT22;8484;50.904;9.192;2023-03-21T10:24:28;11.60;99.90
16732;DHT22;8484;50.904;9.192;2023-03-21T10:26:57;11.80;99.90
16732;DHT22;8484;50.904;9.192;2023-03-21T10:29:27;11.50;99.90
16732;DHT22;8484;50.904;9.192;2023-03-21T10:31:57;11.30;99.90
16732;DHT22;8484;50.904;9.192;2023-03-21T10:34:30;11.30;99.90
16732;DHT22;8484;50.904;9.192;2023-03-21T10:36:59;11.10;99.90
16732;DHT22;8484;50.904;9.192;2023-03-21T10:39:31;11.10;99.90
16732;DHT22;8484;50.904;9.192;2023-03-21T10:41:59;11.10;99.90
16732;DHT22;8484;50.904;9.192;2023-03-21T10:44:29;11.10;99.90
16732;DHT22;8484;50.904;9.192;2023-03-21T10:46:57;11.10;99.90
16732;DHT22;8484;50.904;9.192;2023-03-21T10:49:29;11.10;99.90
16732;DHT22;8484;50.904;9.192;2023-03-21T10:51:58;11.00;99.90
16732;DHT22;8484;50.904;9.192;2023-03-21T10:54:28;11.20;99.90
16732;DHT22;8484;50.904;9.192;2023-03-21T10:56:59;11.20;99.90
16732;DHT22;8484;50.904;9.192;2023-03-21T10:59:28;11.10;99.90
16732;DHT22;8484;50.904;9.192;2023-03-21T11:02:03;11.10;99.90
16732;DHT22;8484;50.904;9.192;2023-03-21T11:04:32;11.10;99.90
16732;DHT22;8484;50.904;9.192;2023-03-21T11:07:04;11.20;99.90
16732;DHT22;8484;50.904;9.192;2023-03-21T11:09:44;11.10;99.90
16732;DHT22;8484;50.904;9.192;2023-03-21T11:12:14;11.00;99.90
16732;DHT22;8484;50.904;9.192;2023-03-21T11:14:43;11.10;99.90
16732;DHT22;8484;50.904;9.192;2023-03-21T11:17:20;11.10;99.90
16732;DHT22;8484;50.904;9.192;2023-03-21T11:19:49;10.90;99.90
16732;DHT22;8484;50.904;9.192;2023-03-21T11:22:18;11.00;99.90
16732;DHT22;8484;50.904;9.192;2023-03-21T11:24:49;11.00;99.90
16732;DHT22;8484;50.904;9.192;2023-03-21T11:27:16;11.00;99.90
16732;DHT22;8484;50.904;9.192;2023-03-21T11:29:46;10.90;99.90
16732;DHT22;8484;50.904;9.192;2023-03-21T11:32:20;11.10;99.90
16732;DHT22;8484;50.904;9.192;2023-03-21T11:34:51;11.30;99.90
16732;DHT22;8484;50.904;9.192;2023-03-21T11:37:26;11.10;99.90
16732;DHT22;8484;50.904;9.192;2023-03-21T11:39:55;11.10;99.90
16732;DHT22;8484;50.904;9.192;2023-03-21T11:42:25;11.00;99.90
16732;DHT22;8484;50.904;9.192;2023-03-21T11:45:00;10.90;99.90
16732;DHT22;8484;50.904;9.192;2023-03-21T11:47:28;10.90;99.90
16732;DHT22;8484;50.904;9.192;2023-03-21T11:49:57;10.90;99.90
16732;DHT22;8484;50.904;9.192;2023-03-21T11:52:31;10.90;99.90
16732;DHT22;8484;50.904;9.192;2023-03-21T11:55:13;10.80;99.90
16732;DHT22;8484;50.904;9.192;2023-03-21T11:57:48;10.90;99.90
16732;DHT22;8484;50.904;9.192;2023-03-21T12:00:20;10.80;99.90
16732;DHT22;8484;50.904;9.192;2023-03-21T12:03:13;10.70;99.90
16732;DHT22;8484;50.904;9.192;2023-03-21T12:05:52;10.80;99.90
16732;DHT22;8484;50.904;9.192;2023-03-21T12:08:26;10.60;99.90
16732;DHT22;8484;50.904;9.192;2023-03-21T12:11:03;10.70;99.90
16732;DHT22;8484;50.904;9.192;2023-03-21T12:13:46;10.60;99.90
16732;DHT22;8484;50.904;9.192;2023-03-21T12:16:27;10.60;99.90
16732;DHT22;8484;50.904;9.192;2023-03-21T12:19:12;10.50;99.90
16732;DHT22;8484;50.904;9.192;2023-03-21T12:22:00;10.60;99.90
16732;DHT22;8484;50.904;9.192;2023-03-21T12:24:42;10.50;99.90
16732;DHT22;8484;50.904;9.192;2023-03-21T12:27:17;10.40;99.90
16732;DHT22;8484;50.904;9.192;2023-03-21T12:29:54;10.20;99.90
16732;DHT22;8484;50.904;9.192;2023-03-21T12:32:43;10.20;99.90
16732;DHT22;8484;50.904;9.192;2023-03-21T12:35:35;10.30;99.90
16732;DHT22;8484;50.904;9.192;2023-03-21T12:38:14;10.30;99.90
16732;DHT22;8484;50.904;9.192;2023-03-21T12:40:50;10.50;99.90
16732;DHT22;8484;50.904;9.192;2023-03-21T12:43:29;10.50;99.90
16732;DHT22;8484;50.904;9.192;2023-03-21T12:45:58;10.50;99.90
16732;DHT22;8484;50.904;9.192;2023-03-21T12:48:38;10.50;99.90
16732;DHT22;8484;50.904;9.192;2023-03-21T12:51:10;10.50;99.90
16732;DHT22;8484;50.904;9.192;2023-03-21T12:53:49;10.50;99.90
16732;DHT22;8484;50.904;9.192;2023-03-21T12:56:21;10.50;99.90
16732;DHT22;8484;50.904;9.192;2023-03-21T12:58:53;10.50;99.90
16732;DHT22;8484;50.904;9.192;2023-03-21T13:01:22;10.50;99.90
16732;DHT22;8484;50.904;9.192;2023-03-21T13:04:03;10.50;99.90
16732;DHT22;8484;50.904;9.192;2023-03-21T13:06:32;10.30;99.90
16732;DHT22;8484;50.904;9.192;2023-03-21T13:09:08;10.20;99.90
16732;DHT22;8484;50.904;9.192;2023-03-21T13:11:37;10.40;99.90
16732;DHT22;8484;50.904;9.192;2023-03-21T13:14:05;10.30;99.90
16732;DHT22;8484;50.904;9.192;2023-03-21T13:16:37;10.20;99.90
16732;DHT22;8484;50.904;9.192;2023-03-21T13:19:13;10.20;99.90
16732;DHT22;8484;50.904;9.192;2023-03-21T13:21:48;10.10;99.90
16732;DHT22;8484;50.904;9.192;2023-03-21T13:24:31;10.10;99.90
16732;DHT22;8484;50.904;9.192;2023-03-21T13:27:01;10.20;99.90
16732;DHT22;8484;50.904;9.192;2023-03-21T13:29:32;10.20;99.90
16732;DHT22;8484;50.904;9.192;2023-03-21T13:32:08;10.20;99.90
16732;DHT22;8484;50.904;9.192;2023-03-21T13:34:38;10.10;99.90
16732;DHT22;8484;50.904;9.192;2023-03-21T13:37:14;10.10;99.90
16732;DHT22;8484;50.904;9.192;2023-03-21T13:39:45;10.10;99.90
16732;DHT22;8484;50.904;9.192;2023-03-21T13:42:21;10.10;99.90
16732;DHT22;8484;50.904;9.192;2023-03-21T13:44:52;10.10;99.90
16732;DHT22;8484;50.904;9.192;2023-03-21T13:47:34;10.00;99.90
16732;DHT22;8484;50.904;9.192;2023-03-21T13:50:19;10.00;99.90
16732;DHT22;8484;50.904;9.192;2023-03-21T13:53:21;10.10;99.90
16732;DHT22;8484;50.904;9.192;2023-03-21T13:58:59;10.00;99.90
16732;DHT22;8484;50.904;9.192;2023-03-21T14:01:38;10.00;99.90
16732;DHT22;8484;50.904;9.192;2023-03-21T14:04:11;10.00;99.90
16732;DHT22;8484;50.904;9.192;2023-03-21T14:06:43;9.90;99.90
16732;DHT22;8484;50.904;9.192;2023-03-21T14:09:18;9.90;99.90
16732;DHT22;8484;50.904;9.192;2023-03-21T14:11:49;9.80;99.90
16732;DHT22;8484;50.904;9.192;2023-03-21T14:14:19;9.70;99.90
16732;DHT22;8484;50.904;9.192;2023-03-21T14:16:47;9.70;99.90
16732;DHT22;8484;50.904;9.192;2023-03-21T14:19:13;9.70;99.90
16732;DHT22;8484;50.904;9.192;2023-03-21T14:21:47;9.70;99.90
16732;DHT22;8484;50.904;9.192;2023-03-21T14:24:16;9.70;99.90
16732;DHT22;8484;50.904;9.192;2023-03-21T14:26:48;9.70;99.90
16732;DHT22;8484;50.904;9.192;2023-03-21T14:29:20;9.70;99.90
16732;DHT22;8484;50.904;9.192;2023-03-21T14:31:48;9.60;99.90
16732;DHT22;8484;50.904;9.192;2023-03-21T14:34:16;9.60;99.90
16732;DHT22;8484;50.904;9.192;2023-03-21T14:36:43;9.60;99.90
16732;DHT22;8484;50.904;9.192;2023-03-21T14:39:14;9.50;99.90
16732;DHT22;8484;50.904;9.192;2023-03-21T14:41:48;9.50;99.90
16732;DHT22;8484;50.904;9.192;2023-03-21T14:44:21;9.40;99.90
16732;DHT22;8484;50.904;9.192;2023-03-21T14:46:52;9.40;99.90
16732;DHT22;8484;50.904;9.192;2023-03-21T14:49:23;9.30;99.90
16732;DHT22;8484;50.904;9.192;2023-03-21T14:51:52;9.30;99.90
16732;DHT22;8484;50.904;9.192;2023-03-21T14:54:19;9.30;99.90
16732;DHT22;8484;50.904;9.192;2023-03-21T14:56:51;9.20;99.90
16732;DHT22;8484;50.904;9.192;2023-03-21T14:59:22;9.20;99.90
16732;DHT22;8484;50.904;9.192;2023-03-21T15:01:51;9.10;99.90
16732;DHT22;8484;50.904;9.192;2023-03-21T15:04:19;9.10;99.90
16732;DHT22;8484;50.904;9.192;2023-03-21T15:06:53;9.10;99.90
16732;DHT22;8484;50.904;9.192;2023-03-21T15:09:23;9.00;99.90
16732;DHT22;8484;50.904;9.192;2023-03-21T15:11:54;8.90;99.90
16732;DHT22;8484;50.904;9.192;2023-03-21T15:14:26;8.80;99.90
16732;DHT22;8484;50.904;9.192;2023-03-21T15:16:55;8.90;99.90
16732;DHT22;8484;50.904;9.192;2023-03-21T15:19:27;8.90;99.90
16732;DHT22;8484;50.904;9.192;2023-03-21T15:21:58;8.90;99.90
16732;DHT22;8484;50.904;9.192;2023-03-21T15:24:28;8.80;99.90
16732;DHT22;8484;50.904;9.192;2023-03-21T15:27:01;8.70;99.90
16732;DHT22;8484;50.904;9.192;2023-03-21T15:29:29;8.70;99.90
16732;DHT22;8484;50.904;9.192;2023-03-21T15:31:56;8.70;99.90
16732;DHT22;8484;50.904;9.192;2023-03-21T15:34:26;8.60;99.90
16732;DHT22;8484;50.904;9.192;2023-03-21T15:36:56;8.70;99.90
16732;DHT22;8484;50.904;9.192;2023-03-21T15:39:25;8.60;99.90
16732;DHT22;8484;50.904;9.192;2023-03-21T15:42:02;8.60;99.90
16732;DHT22;8484;50.904;9.192;2023-03-21T15:44:30;8.50;99.90
16732;DHT22;8484;50.904;9.192;2023-03-21T15:46:58;8.50;99.90
16732;DHT22;8484;50.904;9.192;2023-03-21T15:49:28;8.50;99.90
16732;DHT22;8484;50.904;9.192;2023-03-21T15:52:04;8.60;99.90
16732;DHT22;8484;50.904;9.192;2023-03-21T15:54:33;8.50;99.90
16732;DHT22;8484;50.904;9.192;2023-03-21T15:57:05;8.50;99.90
16732;DHT22;8484;50.904;9.192;2023-03-21T15:59:44;8.50;99.90
16732;DHT22;8484;50.904;9.192;2023-03-21T16:02:16;8.40;99.90
16732;DHT22;8484;50.904;9.192;2023-03-21T16:04:59;8.50;99.90
16732;DHT22;8484;50.904;9.192;2023-03-21T16:07:26;8.30;99.90
16732;DHT22;8484;50.904;9.192;2023-03-21T16:09:58;8.40;99.90
16732;DHT22;8484;50.904;9.192;2023-03-21T16:12:27;8.40;99.90
16732;DHT22;8484;50.904;9.192;2023-03-21T16:14:53;8.40;99.90
16732;DHT22;8484;50.904;9.192;2023-03-21T16:17:31;8.40;99.90
16732;DHT22;8484;50.904;9.192;2023-03-21T16:19:58;8.40;99.90
16732;DHT22;8484;50.904;9.192;2023-03-21T16:22:25;8.40;99.90
16732;DHT22;8484;50.904;9.192;2023-03-21T16:24:52;8.40;99.90
16732;DHT22;8484;50.904;9.192;2023-03-21T16:27:20;8.40;99.90